Time;durP1;ratioP1;P1;durP2;ratioP2;P2;SDS_P1;SDS_P2;PMS_P1;PMS_P2;Temp;Humidity;BMP_temperature;BMP_pressure;BME280_temperature;BME280_humidity;BME280_pressure;Samples;Min_cycle;Max_cycle;Signal;HPM_P1;HPM_P2
2022/07/14 00:01:24;;;;;;;3.30;3.00;;;25.70;58.70;;;;;;5051567;28;20192;-83
2022/07/14 00:03:50;;;;;;;5.10;3.30;;;25.70;58.70;;;;;;5049206;28;20248;-83
2022/07/14 00:06:16;;;;;;;3.47;3.13;;;25.70;59.50;;;;;;5051748;28;20200;-83
2022/07/14 00:08:45;;;;;;;3.47;3.10;;;25.70;59.00;;;;;;5053931;28;20219;-83
2022/07/14 00:11:11;;;;;;;4.33;3.10;;;25.70;59.60;;;;;;5038268;28;20485;-82
2022/07/14 00:13:37;;;;;;;3.40;3.10;;;25.70;59.60;;;;;;5049786;28;20499;-81
2022/07/14 00:16:03;;;;;;;3.57;3.27;;;25.70;59.80;;;;;;5050786;28;20435;-82
2022/07/14 00:18:30;;;;;;;4.20;3.80;;;25.60;60.40;;;;;;5034833;28;20200;-81
2022/07/14 00:20:55;;;;;;;6.40;3.87;;;25.60;61.30;;;;;;5050955;28;20462;-81
2022/07/14 00:23:22;;;;;;;3.30;3.00;;;25.60;60.40;;;;;;5048603;28;20463;-80
2022/07/14 00:25:48;;;;;;;3.57;3.27;;;25.60;60.30;;;;;;5052047;28;20189;-81
2022/07/14 00:28:13;;;;;;;4.03;3.60;;;25.50;60.30;;;;;;5049432;28;20678;-80
2022/07/14 00:30:39;;;;;;;3.70;3.37;;;25.50;60.50;;;;;;5045735;28;20205;-82
2022/07/14 00:33:04;;;;;;;5.07;3.50;;;25.40;61.00;;;;;;5044470;28;20188;-81
2022/07/14 00:35:30;;;;;;;3.67;3.37;;;25.30;61.40;;;;;;5037769;28;20299;-83
2022/07/14 00:37:55;;;;;;;6.00;3.07;;;25.20;63.00;;;;;;5032079;28;20195;-82
2022/07/14 00:40:22;;;;;;;4.87;3.80;;;25.20;62.50;;;;;;5030986;28;20184;-83
2022/07/14 00:42:49;;;;;;;4.67;3.40;;;25.20;61.80;;;;;;5030875;28;20211;-82
2022/07/14 00:45:18;;;;;;;4.10;3.07;;;25.10;61.40;;;;;;5038698;28;20465;-84
2022/07/14 00:47:46;;;;;;;3.67;3.30;;;25.10;61.80;;;;;;5037124;28;20427;-83
2022/07/14 00:50:13;;;;;;;3.27;2.97;;;25.00;61.50;;;;;;5041993;28;20467;-83
2022/07/14 00:52:40;;;;;;;6.30;2.90;;;25.00;61.30;;;;;;5031121;28;20431;-83
2022/07/14 00:55:07;;;;;;;3.50;3.20;;;24.90;61.60;;;;;;5038685;28;20487;-82
2022/07/14 00:57:33;;;;;;;4.13;3.60;;;24.80;61.50;;;;;;5038133;28;20454;-83
2022/07/14 00:59:59;;;;;;;5.03;3.17;;;24.80;61.40;;;;;;5025146;28;20523;-83
2022/07/14 01:02:24;;;;;;;4.00;3.30;;;24.70;61.60;;;;;;5036482;28;20427;-83
2022/07/14 01:04:51;;;;;;;3.10;2.80;;;24.60;61.30;;;;;;5043961;28;20203;-82
2022/07/14 01:07:17;;;;;;;4.30;3.13;;;24.60;61.80;;;;;;5042590;28;20199;-83
2022/07/14 01:09:44;;;;;;;3.30;3.00;;;24.60;61.70;;;;;;5044413;28;20475;-82
2022/07/14 01:12:11;;;;;;;3.87;3.03;;;24.50;61.50;;;;;;5014719;28;20466;-83
2022/07/14 01:14:38;;;;;;;3.40;3.10;;;24.50;62.20;;;;;;5029137;28;20876;-83
2022/07/14 01:17:05;;;;;;;3.40;3.10;;;24.40;61.60;;;;;;5026138;28;20444;-83
2022/07/14 01:19:32;;;;;;;7.10;3.07;;;24.40;61.90;;;;;;5021729;28;20447;-82
2022/07/14 01:21:58;;;;;;;4.27;3.20;;;24.20;62.80;;;;;;5027654;28;20465;-81
2022/07/14 01:24:24;;;;;;;3.63;3.30;;;24.20;63.50;;;;;;5025081;28;20440;-83
2022/07/14 01:26:50;;;;;;;3.83;3.00;;;24.20;63.70;;;;;;5026535;28;20441;-83
2022/07/14 01:29:16;;;;;;;5.33;2.93;;;24.20;63.50;;;;;;5012185;28;20565;-82
2022/07/14 01:31:42;;;;;;;4.77;3.00;;;24.20;63.10;;;;;;5027947;28;20233;-83
2022/07/14 01:34:08;;;;;;;4.10;3.00;;;24.20;63.20;;;;;;5009607;28;20569;-85
2022/07/14 01:36:34;;;;;;;6.70;3.57;;;24.20;63.30;;;;;;5010849;28;20986;-83
2022/07/14 01:39:00;;;;;;;4.40;3.17;;;24.20;63.10;;;;;;5028000;28;20684;-85
2022/07/14 01:41:26;;;;;;;3.27;3.00;;;24.20;62.90;;;;;;5013128;28;20435;-85
2022/07/14 01:43:53;;;;;;;4.27;2.67;;;24.20;62.50;;;;;;5025375;28;20440;-83
2022/07/14 01:46:18;;;;;;;3.80;2.67;;;24.10;62.10;;;;;;5008277;28;20451;-84
2022/07/14 01:48:44;;;;;;;4.70;3.10;;;24.10;62.30;;;;;;5026591;28;21396;-83
2022/07/14 01:51:10;;;;;;;5.40;3.27;;;24.00;62.20;;;;;;5026868;28;20216;-83
2022/07/14 01:53:35;;;;;;;3.23;2.93;;;24.00;62.50;;;;;;5006259;28;20188;-83
2022/07/14 01:56:01;;;;;;;5.30;2.97;;;23.90;62.90;;;;;;5023578;28;20184;-81
2022/07/14 01:58:27;;;;;;;3.50;2.87;;;24.00;63.20;;;;;;5024965;28;20201;-84
2022/07/14 02:03:37;;;;;;;3.67;3.27;;;24.00;62.20;;;;;;5024457;28;20262;-82
2022/07/14 02:06:05;;;;;;;3.33;3.03;;;24.00;62.50;;;;;;5009763;28;20445;-83
2022/07/14 02:08:30;;;;;;;5.60;2.90;;;23.90;63.00;;;;;;5025424;28;20469;-82
2022/07/14 02:13:40;;;;;;;3.73;2.93;;;23.70;63.20;;;;;;5029005;28;20250;-82
2022/07/14 02:16:08;;;;;;;3.70;3.30;;;23.70;63.70;;;;;;5033677;28;20888;-83
2022/07/14 02:18:33;;;;;;;3.40;3.10;;;23.60;63.50;;;;;;5031439;28;20617;-82
2022/07/14 02:20:59;;;;;;;2.80;2.60;;;23.50;63.80;;;;;;5023037;28;20451;-82
2022/07/14 02:23:24;;;;;;;3.73;2.80;;;23.50;63.70;;;;;;5024219;28;20196;-82
2022/07/14 02:25:50;;;;;;;3.57;3.27;;;23.50;63.50;;;;;;5026846;28;20189;-82
2022/07/14 02:28:16;;;;;;;2.97;2.67;;;23.40;63.60;;;;;;5026377;28;20219;-83
2022/07/14 02:30:42;;;;;;;3.10;2.87;;;23.40;63.00;;;;;;5024828;28;20291;-84
2022/07/14 02:33:08;;;;;;;5.53;3.10;;;23.30;63.20;;;;;;5026855;28;20495;-84
2022/07/14 02:35:34;;;;;;;3.17;2.97;;;23.30;64.30;;;;;;5030504;28;20181;-84
2022/07/14 02:38:00;;;;;;;3.73;2.90;;;23.30;63.20;;;;;;5027453;28;20169;-84
2022/07/14 02:40:26;;;;;;;2.83;2.60;;;23.10;63.20;;;;;;5025919;28;20489;-85
2022/07/14 02:42:51;;;;;;;3.20;2.63;;;23.20;63.50;;;;;;5027466;28;20181;-84
2022/07/14 02:45:17;;;;;;;3.17;2.90;;;23.30;63.30;;;;;;5031615;28;20184;-83
2022/07/14 02:47:43;;;;;;;2.87;2.57;;;23.30;63.30;;;;;;5029915;28;20200;-86
2022/07/14 02:50:09;;;;;;;3.43;2.93;;;23.30;63.10;;;;;;5030040;28;20623;-84
2022/07/14 02:52:35;;;;;;;4.40;2.63;;;23.30;62.60;;;;;;5028325;28;20871;-84
2022/07/14 02:55:01;;;;;;;2.87;2.67;;;23.40;62.20;;;;;;5010130;28;20450;-81
2022/07/14 02:57:27;;;;;;;3.47;3.10;;;23.30;63.20;;;;;;5021316;28;20919;-80
2022/07/14 02:59:52;;;;;;;2.53;2.33;;;23.30;63.20;;;;;;5025872;28;20648;-84
2022/07/14 03:02:19;;;;;;;4.20;2.90;;;23.30;62.40;;;;;;5009384;28;20192;-82
2022/07/14 03:04:44;;;;;;;5.20;3.03;;;23.30;61.90;;;;;;5007096;28;20183;-82
2022/07/14 03:07:10;;;;;;;3.47;2.70;;;23.40;61.80;;;;;;5012631;28;20490;-82
2022/07/14 03:09:36;;;;;;;4.97;3.43;;;23.40;62.10;;;;;;5022721;28;20349;-81
2022/07/14 03:12:01;;;;;;;2.90;2.70;;;23.30;62.40;;;;;;5005759;28;20715;-82
2022/07/14 03:14:27;;;;;;;4.10;2.87;;;23.20;62.60;;;;;;5023098;28;20185;-81
2022/07/14 03:16:52;;;;;;;8.23;2.93;;;23.20;63.00;;;;;;5023510;28;20731;-81
2022/07/14 03:19:19;;;;;;;3.43;3.13;;;23.20;63.40;;;;;;5024716;28;20879;-82
2022/07/14 03:21:44;;;;;;;3.00;2.70;;;23.20;63.40;;;;;;5024784;28;20192;-83
2022/07/14 03:24:10;;;;;;;5.50;2.77;;;23.10;62.80;;;;;;5017054;28;20439;-83
2022/07/14 03:26:36;;;;;;;3.47;2.90;;;23.10;63.40;;;;;;5022392;28;20199;-83
2022/07/14 03:29:02;;;;;;;3.10;2.80;;;23.10;63.60;;;;;;5020446;28;20220;-80
2022/07/14 03:31:28;;;;;;;3.73;3.23;;;23.10;63.60;;;;;;5020322;28;20204;-81
2022/07/14 03:33:53;;;;;;;2.90;2.60;;;23.00;63.10;;;;;;5024432;28;20529;-82
2022/07/14 03:36:20;;;;;;;3.00;2.80;;;23.00;64.10;;;;;;5023158;28;20765;-82
2022/07/14 03:38:46;;;;;;;4.30;3.10;;;22.90;63.30;;;;;;5008451;28;20277;-81
2022/07/14 03:41:12;;;;;;;7.20;3.00;;;22.90;63.10;;;;;;5009504;28;20549;-82
2022/07/14 03:43:38;;;;;;;3.37;3.03;;;22.90;63.20;;;;;;5024924;28;20472;-81
2022/07/14 03:46:04;;;;;;;3.20;2.90;;;22.90;63.20;;;;;;5005003;28;20189;-79
2022/07/14 03:48:31;;;;;;;3.07;2.80;;;22.90;64.20;;;;;;5025379;28;20231;-81
2022/07/14 03:50:57;;;;;;;3.03;2.80;;;22.80;62.90;;;;;;5019438;28;20503;-83
2022/07/14 03:53:23;;;;;;;5.50;2.77;;;22.70;64.50;;;;;;5020850;28;20439;-82
2022/07/14 03:55:48;;;;;;;3.23;2.93;;;22.70;64.00;;;;;;5019485;28;20236;-84
2022/07/14 03:58:14;;;;;;;3.63;2.90;;;22.60;64.20;;;;;;5023545;28;20209;-83
2022/07/14 04:00:42;;;;;;;3.70;3.40;;;22.60;64.50;;;;;;5019793;28;20672;-81
2022/07/14 04:03:09;;;;;;;3.40;3.10;;;22.60;64.80;;;;;;5027735;28;20196;-80
2022/07/14 04:05:34;;;;;;;5.87;3.30;;;22.60;64.90;;;;;;5025735;28;20435;-80
2022/07/14 04:08:00;;;;;;;4.30;3.10;;;22.70;64.90;;;;;;5024129;28;20798;-79
2022/07/14 04:10:26;;;;;;;3.87;3.40;;;22.80;64.50;;;;;;5006039;28;20193;-83
2022/07/14 04:12:51;;;;;;;3.30;3.00;;;22.80;64.20;;;;;;5025041;28;20180;-81
2022/07/14 04:15:17;;;;;;;4.13;3.07;;;22.80;64.30;;;;;;5025567;28;20708;-80
2022/07/14 04:17:42;;;;;;;3.10;2.80;;;22.70;64.10;;;;;;5026101;28;20187;-81
2022/07/14 04:20:09;;;;;;;16.83;4.80;;;22.80;63.90;;;;;;5008926;28;20212;-81
2022/07/14 04:22:34;;;;;;;3.40;3.10;;;22.90;63.60;;;;;;5012237;28;20192;-82
2022/07/14 04:25:00;;;;;;;4.97;4.57;;;22.80;63.60;;;;;;5030166;28;20446;-80
2022/07/14 04:27:26;;;;;;;2.80;2.60;;;22.80;63.90;;;;;;5029640;28;20243;-82
2022/07/14 04:29:51;;;;;;;5.33;3.00;;;22.80;63.90;;;;;;5028678;28;20308;-84
2022/07/14 04:32:17;;;;;;;3.60;3.30;;;22.90;63.50;;;;;;5031936;28;20201;-83
2022/07/14 04:34:44;;;;;;;4.20;3.27;;;22.90;63.60;;;;;;5028690;28;20258;-83
2022/07/14 04:37:11;;;;;;;3.50;3.20;;;22.90;63.30;;;;;;5027311;28;20454;-81
2022/07/14 04:39:37;;;;;;;3.57;3.10;;;23.00;62.80;;;;;;5024484;28;20456;-80
2022/07/14 04:42:05;;;;;;;4.17;3.07;;;22.90;63.10;;;;;;5021926;28;20462;-81
2022/07/14 04:44:31;;;;;;;3.27;2.97;;;22.80;63.70;;;;;;5024907;28;20447;-81
2022/07/14 04:46:56;;;;;;;3.63;3.33;;;22.90;63.80;;;;;;5028194;28;21015;-80
2022/07/14 04:52:06;;;;;;;3.87;3.47;;;22.90;63.80;;;;;;5028506;28;20199;-80
2022/07/14 04:54:34;;;;;;;7.50;3.40;;;22.80;64.50;;;;;;5029000;28;20436;-80
2022/07/14 04:57:01;;;;;;;5.90;3.67;;;22.90;64.00;;;;;;5005126;28;20189;-79
2022/07/14 04:59:28;;;;;;;4.30;3.27;;;23.00;64.10;;;;;;5022872;28;20759;-79
2022/07/14 05:01:54;;;;;;;3.60;3.30;;;22.90;64.40;;;;;;5030293;28;20443;-81
2022/07/14 05:04:23;;;;;;;3.60;3.30;;;22.90;64.90;;;;;;5029122;28;20443;-81
2022/07/14 05:06:50;;;;;;;3.73;3.43;;;22.80;65.40;;;;;;5028283;28;20438;-80
2022/07/14 05:09:25;;;;;;;3.70;3.30;;;22.70;66.80;;;;;;5029945;28;20467;-80
2022/07/14 05:11:53;;;;;;;6.93;3.63;;;22.70;67.20;;;;;;5033500;28;20466;-82
2022/07/14 05:14:19;;;;;;;5.40;3.53;;;22.80;67.60;;;;;;5014276;28;20475;-82
2022/07/14 05:16:45;;;;;;;5.77;3.77;;;22.80;67.70;;;;;;5013870;28;20450;-82
2022/07/14 05:19:11;;;;;;;4.00;3.60;;;22.80;67.80;;;;;;5011792;28;20208;-82
2022/07/14 05:21:37;;;;;;;3.93;3.53;;;23.00;67.80;;;;;;5031272;28;20181;-84
2022/07/14 05:24:03;;;;;;;4.03;3.57;;;23.00;68.90;;;;;;5030807;28;20454;-84
2022/07/14 05:26:29;;;;;;;3.40;3.10;;;22.90;67.50;;;;;;5015654;28;20576;-85
2022/07/14 05:28:55;;;;;;;5.40;3.47;;;23.00;67.20;;;;;;5032641;28;20470;-84
2022/07/14 05:31:21;;;;;;;3.93;3.13;;;23.10;67.00;;;;;;5045320;28;20201;-83
2022/07/14 05:33:48;;;;;;;4.77;3.40;;;23.10;67.00;;;;;;5045686;28;20173;-78
2022/07/14 05:36:13;;;;;;;3.30;3.00;;;23.10;67.20;;;;;;5013727;28;20188;-82
2022/07/14 05:38:39;;;;;;;3.73;3.33;;;23.10;66.70;;;;;;5024459;28;20454;-80
2022/07/14 05:41:05;;;;;;;5.37;3.40;;;23.10;66.60;;;;;;5041369;28;20204;-79
2022/07/14 05:43:33;;;;;;;4.10;3.57;;;23.20;66.50;;;;;;5033859;28;20428;-78
2022/07/14 05:46:06;;;;;;;4.13;3.40;;;23.10;67.00;;;;;;5027246;28;20181;-79
2022/07/14 05:48:32;;;;;;;6.63;3.60;;;23.20;66.90;;;;;;5012303;28;20460;-81
2022/07/14 05:51:06;;;;;;;4.20;2.97;;;23.20;66.80;;;;;;5010883;28;20464;-80
2022/07/14 05:53:32;;;;;;;3.70;3.17;;;23.30;66.40;;;;;;5024565;28;20535;-80
2022/07/14 05:56:08;;;;;;;4.80;3.20;;;23.40;66.00;;;;;;5028725;28;20658;-82
2022/07/14 05:58:35;;;;;;;4.17;3.40;;;23.40;65.50;;;;;;5007464;28;20485;-80
2022/07/14 06:01:02;;;;;;;6.93;3.33;;;23.40;65.60;;;;;;5020370;28;20431;-80
2022/07/14 06:03:28;;;;;;;8.53;3.47;;;23.50;65.10;;;;;;5019646;28;20802;-82
2022/07/14 06:05:54;;;;;;;7.27;3.77;;;23.50;65.20;;;;;;5025157;28;20427;-81
2022/07/14 06:08:19;;;;;;;5.83;3.80;;;23.50;65.10;;;;;;5025750;28;20214;-82
2022/07/14 06:10:45;;;;;;;3.83;3.40;;;23.60;64.70;;;;;;5022018;28;20217;-79
2022/07/14 06:13:11;;;;;;;4.60;3.10;;;23.50;65.20;;;;;;5013361;28;20188;-81
2022/07/14 06:15:36;;;;;;;4.03;3.27;;;23.60;65.00;;;;;;5023464;28;20192;-81
2022/07/14 06:18:03;;;;;;;5.67;3.33;;;23.50;65.60;;;;;;5025932;28;20689;-81
2022/07/14 06:20:28;;;;;;;3.93;3.10;;;23.50;66.40;;;;;;5009503;28;20569;-81
2022/07/14 06:22:54;;;;;;;4.60;3.00;;;23.50;67.20;;;;;;5022735;28;20488;-82
2022/07/14 06:25:20;;;;;;;9.40;3.73;;;23.50;67.30;;;;;;5020004;28;20210;-82
2022/07/14 06:27:46;;;;;;;4.20;3.17;;;23.60;66.90;;;;;;5007566;28;20238;-82
2022/07/14 06:30:12;;;;;;;5.53;3.20;;;23.70;66.50;;;;;;5005581;28;20474;-79
2022/07/14 06:32:41;;;;;;;8.60;3.67;;;23.80;66.40;;;;;;5021535;28;20173;-78
2022/07/14 06:35:08;;;;;;;3.97;3.30;;;23.80;66.10;;;;;;5020515;28;20255;-79
2022/07/14 06:37:36;;;;;;;3.20;2.90;;;23.90;66.50;;;;;;5026167;28;20962;-81
2022/07/14 06:40:05;;;;;;;4.13;3.73;;;23.90;66.10;;;;;;5022241;28;20450;-78
2022/07/14 06:42:34;;;;;;;4.80;3.40;;;24.00;66.50;;;;;;5028154;28;20531;-79
2022/07/14 06:45:00;;;;;;;5.30;4.27;;;24.10;65.90;;;;;;5028709;28;20440;-81
2022/07/14 06:47:26;;;;;;;4.90;3.20;;;24.10;65.30;;;;;;5026566;28;20439;-82
2022/07/14 06:49:51;;;;;;;4.60;3.10;;;24.20;65.70;;;;;;5011202;28;21004;-82
2022/07/14 06:52:17;;;;;;;3.83;2.87;;;24.30;66.00;;;;;;5027857;28;20191;-83
2022/07/14 06:54:43;;;;;;;3.83;3.47;;;24.40;65.90;;;;;;5009861;28;20180;-83
2022/07/14 06:57:08;;;;;;;3.53;3.23;;;24.50;65.10;;;;;;5022602;28;20271;-80
2022/07/14 06:59:34;;;;;;;7.10;3.40;;;24.60;64.70;;;;;;5025900;28;20205;-82
2022/07/14 07:01:59;;;;;;;4.37;3.30;;;24.60;65.30;;;;;;5029852;28;20212;-82
2022/07/14 07:04:25;;;;;;;4.03;3.63;;;24.60;65.20;;;;;;5031409;28;20193;-79
2022/07/14 07:06:51;;;;;;;5.33;3.40;;;24.70;64.90;;;;;;5031105;28;20185;-82
2022/07/14 07:09:19;;;;;;;4.63;4.23;;;24.80;64.80;;;;;;5015966;28;20230;-78
2022/07/14 07:11:46;;;;;;;6.23;3.40;;;24.80;64.80;;;;;;5019645;28;20478;-80
2022/07/14 07:14:12;;;;;;;7.60;3.40;;;24.70;64.90;;;;;;5009279;28;20944;-79
2022/07/14 07:16:38;;;;;;;4.90;4.37;;;24.90;64.40;;;;;;5021653;28;20438;-79
2022/07/14 07:19:04;;;;;;;3.73;3.43;;;24.90;64.70;;;;;;5020504;28;20542;-80
2022/07/14 07:21:30;;;;;;;10.20;4.03;;;25.00;64.00;;;;;;5008658;28;20502;-81
2022/07/14 07:23:56;;;;;;;6.30;3.60;;;25.10;63.80;;;;;;5017409;28;20446;-81
2022/07/14 07:26:24;;;;;;;4.23;3.60;;;25.30;64.10;;;;;;5021036;28;20819;-78
2022/07/14 07:28:52;;;;;;;3.90;3.60;;;25.30;64.30;;;;;;5015930;28;20311;-79
2022/07/14 07:31:18;;;;;;;5.00;3.40;;;25.30;64.60;;;;;;5020592;28;20474;-81
2022/07/14 07:33:50;;;;;;;3.53;3.23;;;25.30;64.30;;;;;;5008110;28;20439;-81
2022/07/14 07:36:16;;;;;;;4.57;3.50;;;25.30;64.10;;;;;;5012872;28;20462;-81
2022/07/14 07:38:42;;;;;;;5.20;3.57;;;25.40;64.00;;;;;;5009556;28;20481;-80
2022/07/14 07:41:08;;;;;;;3.97;3.30;;;25.40;64.40;;;;;;5030417;28;20423;-80
2022/07/14 07:43:39;;;;;;;5.00;3.30;;;25.50;64.60;;;;;;5030212;28;20192;-79
2022/07/14 07:46:05;;;;;;;4.60;3.77;;;25.60;64.60;;;;;;5030116;28;20666;-81
2022/07/14 07:48:32;;;;;;;4.10;3.40;;;25.70;64.80;;;;;;5013717;28;20537;-82
2022/07/14 07:51:00;;;;;;;9.53;3.50;;;25.70;64.50;;;;;;5026794;28;20474;-81
2022/07/14 07:53:26;;;;;;;4.10;3.80;;;25.70;63.30;;;;;;5028443;28;20427;-83
2022/07/14 07:55:53;;;;;;;4.97;3.60;;;25.80;63.50;;;;;;5021018;28;20433;-82
2022/07/14 07:58:19;;;;;;;3.80;3.40;;;25.90;63.70;;;;;;5015229;28;20443;-84
2022/07/14 08:00:45;;;;;;;8.10;3.30;;;26.00;63.70;;;;;;5017228;28;20433;-84
2022/07/14 08:03:11;;;;;;;3.63;3.03;;;26.10;63.60;;;;;;5014140;28;20482;-84
2022/07/14 08:05:37;;;;;;;9.57;3.30;;;26.20;62.80;;;;;;5025330;28;20188;-80
2022/07/14 08:08:11;;;;;;;4.83;3.13;;;26.30;62.20;;;;;;5007709;28;20205;-79
2022/07/14 08:10:38;;;;;;;3.70;3.40;;;26.50;61.40;;;;;;5016594;28;20838;-80
2022/07/14 08:13:05;;;;;;;3.87;3.10;;;26.50;60.30;;;;;;5018813;28;20431;-80
2022/07/14 08:15:31;;;;;;;10.33;3.73;;;26.60;59.80;;;;;;5031152;28;21213;-80
2022/07/14 08:18:10;;;;;;;5.63;3.30;;;26.60;60.50;;;;;;5033298;28;20427;-79
2022/07/14 08:20:36;;;;;;;4.20;3.80;;;26.80;60.80;;;;;;5026611;28;20442;-81
2022/07/14 08:23:02;;;;;;;3.90;3.60;;;26.90;61.20;;;;;;5027292;28;20959;-79
2022/07/14 08:25:28;;;;;;;6.30;3.60;;;27.00;59.70;;;;;;5024652;28;20859;-80
2022/07/14 08:27:54;;;;;;;6.57;3.10;;;27.10;59.20;;;;;;5036850;28;20454;-83
2022/07/14 08:30:20;;;;;;;6.37;3.50;;;27.20;59.50;;;;;;5027337;28;20216;-79
2022/07/14 08:32:51;;;;;;;4.20;3.60;;;27.30;58.90;;;;;;5028959;28;20249;-83
2022/07/14 08:35:19;;;;;;;3.63;3.30;;;27.40;59.00;;;;;;5016863;28;20430;-83
2022/07/14 08:37:46;;;;;;;6.47;3.83;;;27.50;58.50;;;;;;5033160;28;20518;-83
2022/07/14 08:40:17;;;;;;;5.10;3.57;;;27.60;57.40;;;;;;5013144;28;20467;-83
2022/07/14 08:42:44;;;;;;;6.60;3.53;;;27.70;56.70;;;;;;5014610;28;20447;-84
2022/07/14 08:45:12;;;;;;;4.23;3.77;;;27.90;56.10;;;;;;5012908;28;20436;-82
2022/07/14 08:47:38;;;;;;;10.00;3.87;;;27.90;55.60;;;;;;5027891;28;20439;-82
2022/07/14 08:50:07;;;;;;;4.00;3.10;;;28.10;55.80;;;;;;5026721;28;20477;-85
2022/07/14 08:52:33;;;;;;;3.40;3.10;;;28.20;55.40;;;;;;5028595;28;20440;-84
2022/07/14 08:54:59;;;;;;;5.10;3.67;;;28.30;55.50;;;;;;5013859;28;20443;-77
2022/07/14 08:57:26;;;;;;;3.73;3.30;;;28.40;55.80;;;;;;5007330;28;20953;-80
2022/07/14 08:59:51;;;;;;;3.90;3.40;;;28.50;54.80;;;;;;5007569;28;20439;-77
2022/07/14 09:02:17;;;;;;;3.80;3.00;;;28.50;54.20;;;;;;5009138;28;20522;-78
2022/07/14 09:04:44;;;;;;;4.33;3.33;;;28.60;55.10;;;;;;5026331;28;20191;-77
2022/07/14 09:07:12;;;;;;;4.73;3.87;;;28.70;54.50;;;;;;5022967;28;20248;-78
2022/07/14 09:09:40;;;;;;;7.30;3.30;;;28.80;55.10;;;;;;5011531;28;20542;-79
2022/07/14 09:12:08;;;;;;;4.90;3.40;;;28.90;54.20;;;;;;5039480;28;20517;-78
2022/07/14 09:18:12;;;;;;;4.77;3.60;;;28.90;52.90;;;;;;5043645;28;20437;-79
2022/07/14 09:20:38;;;;;;;9.03;3.20;;;29.00;53.80;;;;;;5042686;28;20443;-84
2022/07/14 09:23:05;;;;;;;3.80;3.30;;;29.10;53.30;;;;;;5034547;28;20750;-83
2022/07/14 09:25:37;;;;;;;3.70;3.40;;;29.20;53.10;;;;;;5029323;28;20427;-81
2022/07/14 09:28:15;;;;;;;3.80;3.50;;;29.30;52.50;;;;;;5012187;28;20449;-84
2022/07/14 09:30:43;;;;;;;11.43;3.33;;;29.50;52.50;;;;;;5029284;28;20996;-79
2022/07/14 09:33:11;;;;;;;7.13;3.43;;;29.50;52.10;;;;;;5026899;28;20515;-82
2022/07/14 09:35:42;;;;;;;4.53;3.33;;;29.60;52.10;;;;;;5026843;28;20466;-81
2022/07/14 09:38:22;;;;;;;3.10;2.80;;;29.50;52.30;;;;;;5001544;28;20435;-81
2022/07/14 09:40:48;;;;;;;3.43;3.10;;;29.60;52.50;;;;;;5010972;28;20431;-81
2022/07/14 09:43:15;;;;;;;8.20;3.33;;;29.70;54.60;;;;;;5022170;28;20448;-84
2022/07/14 09:45:46;;;;;;;4.10;3.70;;;29.80;54.60;;;;;;5026310;28;20449;-81
2022/07/14 09:48:14;;;;;;;3.63;3.30;;;29.80;53.30;;;;;;5027585;28;20445;-82
2022/07/14 09:50:41;;;;;;;6.53;3.70;;;29.90;53.90;;;;;;5021352;28;20462;-82
2022/07/14 09:53:18;;;;;;;10.03;3.63;;;29.90;52.00;;;;;;5016519;28;20411;-81
2022/07/14 09:55:53;;;;;;;3.60;3.13;;;29.90;51.80;;;;;;5017103;28;21748;-81
2022/07/14 09:58:20;;;;;;;5.27;2.93;;;30.00;51.40;;;;;;5035798;28;20463;-80
2022/07/14 10:00:54;;;;;;;4.60;3.20;;;30.10;51.10;;;;;;5026225;28;20435;-81
2022/07/14 10:03:21;;;;;;;3.30;3.00;;;30.10;50.30;;;;;;5024331;28;20427;-80
2022/07/14 10:05:49;;;;;;;6.30;3.20;;;30.20;50.00;;;;;;5006558;28;20534;-80
2022/07/14 10:08:17;;;;;;;3.97;3.57;;;30.20;50.60;;;;;;5023666;28;20467;-80
2022/07/14 10:10:46;;;;;;;3.10;2.80;;;30.20;51.60;;;;;;4992150;28;20463;-80
2022/07/14 10:13:15;;;;;;;5.33;3.30;;;30.20;50.50;;;;;;5023294;28;20786;-80
2022/07/14 10:15:41;;;;;;;9.73;3.70;;;30.30;51.50;;;;;;5027675;28;20430;-81
2022/07/14 10:18:07;;;;;;;3.13;2.90;;;30.40;51.40;;;;;;5016994;28;20869;-81
2022/07/14 10:20:34;;;;;;;3.13;2.90;;;30.60;50.20;;;;;;5008534;28;20446;-78
2022/07/14 10:23:02;;;;;;;3.70;3.10;;;30.50;49.30;;;;;;5006062;28;20443;-79
2022/07/14 10:25:28;;;;;;;4.23;3.27;;;30.50;47.90;;;;;;5022954;28;20450;-77
2022/07/14 10:27:54;;;;;;;3.50;2.90;;;30.50;47.50;;;;;;5023210;28;21016;-79
2022/07/14 10:30:34;;;;;;;3.33;3.10;;;30.50;48.60;;;;;;5019537;28;20479;-79
2022/07/14 10:33:26;;;;;;;5.93;3.03;;;30.60;49.10;;;;;;5024965;28;20423;-79
2022/07/14 10:36:08;;;;;;;16.20;3.40;;;30.80;49.00;;;;;;5008281;28;20432;-78
2022/07/14 10:39:12;;;;;;;3.30;3.00;;;30.90;49.00;;;;;;5008118;28;20451;-78
2022/07/14 10:41:59;;;;;;;3.40;3.10;;;30.80;49.30;;;;;;5021372;28;20431;-79
2022/07/14 10:44:29;;;;;;;8.00;3.90;;;30.80;49.00;;;;;;5006399;28;20475;-79
2022/07/14 10:47:16;;;;;;;3.97;3.20;;;30.70;49.30;;;;;;5024977;28;20949;-79
2022/07/14 10:50:07;;;;;;;4.30;3.30;;;30.80;49.50;;;;;;5008913;28;20459;-78
2022/07/14 10:52:36;;;;;;;3.90;3.60;;;31.00;49.60;;;;;;5005709;28;21005;-79
2022/07/14 10:55:23;;;;;;;5.27;3.60;;;31.00;48.80;;;;;;5021166;28;20402;-79
2022/07/14 10:57:58;;;;;;;7.40;3.50;;;31.00;49.30;;;;;;5016506;28;20534;-79
2022/07/14 11:00:42;;;;;;;3.57;3.27;;;31.20;49.10;;;;;;5021046;28;20499;-77
2022/07/14 11:03:33;;;;;;;4.30;3.90;;;31.30;48.80;;;;;;5006178;28;20454;-78
2022/07/14 11:06:08;;;;;;;10.90;3.07;;;31.30;48.70;;;;;;5019307;28;20446;-79
2022/07/14 11:08:37;;;;;;;3.97;3.57;;;31.20;49.80;;;;;;5022302;28;20433;-78
2022/07/14 11:11:08;;;;;;;5.43;3.20;;;31.20;49.50;;;;;;5007385;28;20442;-78
2022/07/14 11:13:35;;;;;;;6.30;3.40;;;31.20;49.40;;;;;;5019862;28;20970;-80
2022/07/14 11:16:05;;;;;;;3.40;3.10;;;31.20;48.30;;;;;;5018201;28;20401;-76
2022/07/14 11:18:37;;;;;;;5.57;3.30;;;31.30;48.40;;;;;;5024222;28;20573;-79
2022/07/14 11:21:16;;;;;;;4.73;3.27;;;31.50;48.50;;;;;;5024583;28;20439;-79
2022/07/14 11:23:48;;;;;;;5.57;3.30;;;31.70;48.00;;;;;;5024211;28;20914;-80
2022/07/14 11:26:35;;;;;;;3.40;3.10;;;31.80;47.90;;;;;;5027398;28;20541;-80
2022/07/14 11:29:04;;;;;;;3.53;3.23;;;32.00;48.00;;;;;;5010279;28;20471;-80
2022/07/14 11:31:52;;;;;;;3.90;3.20;;;32.10;47.70;;;;;;5026290;28;20531;-82
2022/07/14 11:37:14;;;;;;;6.03;3.50;;;32.30;47.50;;;;;;5024862;28;20442;-80
2022/07/14 11:39:42;;;;;;;6.63;4.00;;;32.30;47.70;;;;;;5032528;28;20439;-80
2022/07/14 11:42:16;;;;;;;7.93;3.20;;;32.40;47.80;;;;;;5028967;28;20452;-81
2022/07/14 11:44:51;;;;;;;7.07;3.97;;;32.40;47.80;;;;;;5015912;28;20490;-81
2022/07/14 11:47:23;;;;;;;3.70;3.40;;;32.60;47.80;;;;;;5035596;28;20425;-82
2022/07/14 11:49:54;;;;;;;4.33;3.10;;;32.80;47.50;;;;;;5035124;28;20462;-82
2022/07/14 11:52:32;;;;;;;4.20;3.80;;;33.00;47.70;;;;;;5033374;28;20462;-82
2022/07/14 11:55:00;;;;;;;3.87;3.47;;;33.10;47.40;;;;;;5030984;28;21794;-82
2022/07/14 11:57:26;;;;;;;5.07;3.40;;;33.20;47.50;;;;;;5006377;28;20464;-79
2022/07/14 11:59:53;;;;;;;4.70;3.37;;;33.30;46.70;;;;;;5027698;28;20454;-80
2022/07/14 12:02:20;;;;;;;3.70;3.40;;;33.50;46.80;;;;;;5024074;28;20533;-81
2022/07/14 12:04:49;;;;;;;4.50;3.57;;;33.50;46.60;;;;;;5026356;28;20406;-82
2022/07/14 12:07:15;;;;;;;6.80;3.23;;;33.40;46.80;;;;;;5027755;28;20475;-78
2022/07/14 12:09:42;;;;;;;5.10;3.20;;;33.40;47.20;;;;;;5008923;28;21065;-80
2022/07/14 12:12:08;;;;;;;3.63;3.33;;;33.20;46.20;;;;;;5013098;28;20481;-82
2022/07/14 12:14:43;;;;;;;3.50;3.20;;;33.10;46.60;;;;;;5032599;28;20415;-82
2022/07/14 12:17:09;;;;;;;4.10;3.13;;;33.10;46.60;;;;;;5014006;28;20473;-80
2022/07/14 12:19:36;;;;;;;3.60;3.30;;;33.20;47.00;;;;;;5014645;28;20441;-81
2022/07/14 12:22:04;;;;;;;5.87;3.10;;;33.60;46.10;;;;;;5017233;28;20192;-80
2022/07/14 12:24:31;;;;;;;3.40;3.20;;;35.60;45.20;;;;;;5040094;28;20436;-79
2022/07/14 12:27:02;;;;;;;4.60;3.27;;;37.60;42.90;;;;;;5023383;28;20466;-84
2022/07/14 12:29:31;;;;;;;4.37;3.00;;;38.60;40.90;;;;;;5035429;28;20466;-80
2022/07/14 12:31:59;;;;;;;4.20;3.10;;;39.00;39.80;;;;;;5029421;28;20463;-80
2022/07/14 12:34:26;;;;;;;3.87;3.27;;;40.00;39.00;;;;;;5029942;28;20502;-80
2022/07/14 12:36:56;;;;;;;3.33;2.97;;;40.10;38.20;;;;;;5028702;28;20423;-80
2022/07/14 12:39:22;;;;;;;4.83;3.33;;;40.40;38.40;;;;;;5025618;28;20539;-82
2022/07/14 12:41:48;;;;;;;7.20;3.00;;;40.50;37.90;;;;;;5026230;28;20938;-80
2022/07/14 12:44:14;;;;;;;4.27;3.40;;;40.40;37.40;;;;;;5021483;28;20275;-81
2022/07/14 12:46:40;;;;;;;3.53;3.20;;;40.60;37.50;;;;;;5003116;28;20523;-79
2022/07/14 12:49:08;;;;;;;3.57;3.23;;;40.00;37.30;;;;;;5018918;28;20221;-79
2022/07/14 12:51:34;;;;;;;5.83;3.33;;;39.30;37.20;;;;;;5022109;28;20576;-82
2022/07/14 12:54:02;;;;;;;5.60;3.40;;;39.30;37.20;;;;;;5031045;28;20514;-80
2022/07/14 12:56:31;;;;;;;4.67;3.50;;;40.10;37.20;;;;;;5040758;28;20738;-81
2022/07/14 12:58:59;;;;;;;4.63;3.23;;;40.60;36.80;;;;;;5021121;28;20497;-81
2022/07/14 13:01:26;;;;;;;8.40;3.40;;;40.00;36.80;;;;;;5023070;28;20842;-82
2022/07/14 13:04:02;;;;;;;3.43;3.13;;;39.50;36.40;;;;;;5032736;28;20430;-83